Terminal Aerodrome Forecast
Issued by NWS

Home | Current Version | Previous Version | Graphics & Text | Print | Product List | Glossary On
Versions: 1 2 3 4 5 6 7 8 9 10 11 12 13 14 15 16 17 18 19 20 21 22
345
FTUS43 KLOT 250900 AAA
TAFDPA
TAF AMD
KDPA 250900Z 2509/2606 18005KT P6SM BKN250
     FM251500 18010KT P6SM SCT040 BKN200
     FM252000 17010KT P6SM VCSH SCT040 BKN200
      TEMPO 2522/2602 4SM TSRA SCT030 OVC040CB
     FM260200 17006KT P6SM SCT080 BKN250=

USA.gov is the U.S. government's official web portal to all federal, state and local government web resources and services.